Flight Track Log - Related Links

Times and Time Zones

All times are in EDT time to prevent confusion due to time zone crossing. See the TCF3494 flight status page for this flight to view local times or setup timezone preferences in your user account.

Time Position Orientation Groundspeed Altitude Reporting Facility
EDT Latitude Longitude Course Direction KTS MPH feet Rate Location/Type
Fri 09:06:32 PM 42.0000 -87.9333 90° East 154 177 1,200  Level Chicago TRACON
Fri 09:07:32 PM 42.0333 -87.9333 360° North 207 238 2,900 1,789 Climbing Chicago TRACON
Fri 09:08:26 PM 42.0833 -87.8833 37° Northeast 268 308 4,600 1,826 Climbing Chicago TRACON
Fri 09:09:00 PM 41.9442 -87.2846 95° East  Level FlightAware
Fri 09:09:27 PM 42.1178 -87.7931 63° Northeast 298 343 6,400  Level Chicago Center
Fri 09:10:00 PM 41.9333 -87.1311 90° East  Level FlightAware
Fri 09:10:29 PM 42.0733 -87.6939 121° Southeast 302 348 9,700  Level Chicago Center
Fri 09:11:00 PM 41.9333 -86.9768 90° East  Level FlightAware
Fri 09:11:32 PM 42.0219 -87.5717 119° Southeast 325 374 12,700  Level Chicago Center
Fri 09:12:34 PM 42.0036 -87.4486 101° East 336 387 14,900 1,984 Climbing Chicago Center
Fri 09:13:36 PM 41.9831 -87.3175 102° East 355 409 16,800 1,839 Climbing Chicago Center
Fri 09:14:38 PM 41.9633 -87.1858 101° East 381 438 18,700 1,887 Climbing Chicago Center
Fri 09:15:40 PM 41.9436 -87.0283 100° East 400 460 20,700 2,081 Climbing Chicago Center
Fri 09:16:42 PM 41.9481 -86.8458 88° East 408 470 23,000 1,790 Climbing Chicago Center
Fri 09:17:44 PM 41.9500 -86.6892 89° East 419 482 24,400 1,258 Climbing Chicago Center
Fri 09:18:46 PM 41.9517 -86.5367 89° East 433 498 25,600 1,210 Climbing Chicago Center
Fri 09:19:48 PM 41.9544 -86.3708 89° East 443 510 26,900 1,210 Climbing Chicago Center
Fri 09:20:50 PM 41.9542 -86.1986 90° East 458 527 28,100 1,258 Climbing Chicago Center
Fri 09:21:52 PM 41.9347 -85.9911 97° East 466 536 29,500 1,113 Climbing Chicago Center
Fri 09:22:54 PM 41.9181 -85.8156 97° East 472 543 30,400 864 Climbing Chicago Center
Fri 09:23:57 PM 41.9017 -85.6364 97° East 479 551 31,300 960 Climbing Chicago Center
Fri 09:24:59 PM 41.8847 -85.4531 97° East 486 559 32,400 1,065 Climbing Chicago Center
Fri 09:26:01 PM 41.8667 -85.2722 98° East 481 554 33,500 1,065 Climbing Chicago Center
Fri 09:27:03 PM 41.8486 -85.0953 98° East 478 550 34,600 726 Climbing Chicago Center
Fri 09:28:05 PM 41.8303 -84.9194 98° East 473 544 35,000 194 Climbing Chicago Center
Fri 09:29:07 PM 41.8117 -84.7444 98° East 474 545 35,000  Level Chicago Center
Fri 09:29:44 PM 41.7997 -84.6083 97° East 463 533 35,000  Level Cleveland Center
Fri 09:30:44 PM 41.7825 -84.4347 98° East 463 533 35,000  Level Cleveland Center
Fri 09:31:44 PM 41.7756 -84.2672 93° East 463 533 35,000  Level Cleveland Center
Fri 09:32:44 PM 41.7553 -84.1183 100° East 452 520 35,000  Level Cleveland Center
Fri 09:33:44 PM 41.7247 -83.9553 104° East 452 520 35,000  Level Cleveland Center
Fri 09:34:44 PM 41.6772 -83.7942 111° Southeast 452 520 35,000  Level Cleveland Center
Fri 09:35:44 PM 41.6231 -83.6389 115° Southeast 457 526 35,000  Level Cleveland Center
Fri 09:36:44 PM 41.5669 -83.4781 115° Southeast 457 526 35,000  Level Cleveland Center
Fri 09:37:44 PM 41.5122 -83.3231 115° Southeast 462 532 35,000  Level Cleveland Center
Fri 09:38:44 PM 41.4644 -83.1408 109° East 467 537 35,000  Level Cleveland Center
Fri 09:39:44 PM 41.4514 -82.9658 96° East 472 543 35,000  Level Cleveland Center
Fri 09:40:44 PM 41.4447 -82.7908 93° East 477 549 35,000  Level Cleveland Center
Fri 09:41:44 PM 41.4414 -82.6328 92° East 477 549 35,000  Level Cleveland Center
Fri 09:42:44 PM 41.4358 -82.4611 92° East 477 549 35,000  Level Cleveland Center
Fri 09:43:44 PM 41.4283 -82.2836 93° East 477 549 35,000  Level Cleveland Center
Fri 09:44:44 PM 41.4244 -82.1089 92° East 477 549 35,000  Level Cleveland Center
Fri 09:45:44 PM 41.4183 -81.9372 93° East 477 549 35,000  Level Cleveland Center
Fri 09:46:44 PM 41.4100 -81.7378 93° East 477 549 35,000  Level Cleveland Center
Fri 09:47:44 PM 41.4056 -81.5603 92° East 477 549 35,000  Level Cleveland Center
Fri 09:48:44 PM 41.3964 -81.3858 94° East 477 549 35,000  Level Cleveland Center
Fri 09:49:44 PM 41.3892 -81.2114 93° East 477 549 35,000  Level Cleveland Center
Fri 09:50:44 PM 41.3817 -81.0564 94° East 477 549 35,000  Level Cleveland Center
Fri 09:51:44 PM 41.3739 -80.8847 93° East 477 549 35,000  Level Cleveland Center
Fri 09:52:44 PM 41.3658 -80.7131 94° East 470 541 35,000  Level Cleveland Center
Fri 09:53:44 PM 41.3575 -80.5417 94° East 460 529 35,000  Level Cleveland Center
Fri 09:54:44 PM 41.3489 -80.3728 94° East 460 529 35,000  Level Cleveland Center
Fri 09:55:44 PM 41.3403 -80.1794 93° East 460 529 35,000  Level Cleveland Center
Fri 09:56:44 PM 41.3311 -80.0081 94° East 465 535 35,000  Level Cleveland Center
Fri 09:57:44 PM 41.3197 -79.8339 95° East 465 535 35,000  Level Cleveland Center
Fri 09:58:44 PM 41.3100 -79.6597 94° East 465 535 35,000  Level Cleveland Center
Fri 09:59:44 PM 41.3022 -79.4803 93° East 465 535 35,000  Level Cleveland Center
Fri 10:00:44 PM 41.2922 -79.3092 94° East 465 535 35,000  Level Cleveland Center
Fri 10:01:44 PM 41.2797 -79.1381 95° East 465 535 35,000 -567 Level Cleveland Center
Fri 10:03:00 PM 41.2658 -78.9542 96° East  Level FlightAware
Fri 10:03:44 PM 41.2600 -78.7878 96° East 472 543 33,300  Level Cleveland Center
Fri 10:04:44 PM 41.2467 -78.6058 96° East 477 549 33,000 -103 Descending Cleveland Center
Fri 10:06:38 PM 41.2253 -78.2858 95° East 457 526 33,000  Level New Center
Fri 10:07:47 PM 41.2069 -78.0769 97° East 469 540 33,000  Level New Center
Fri 10:08:46 PM 41.1842 -77.9036 100° East 469 540 33,000  Level New Center
Fri 10:09:46 PM 41.1631 -77.7303 99° East 469 540 33,000  Level New Center
Fri 10:10:47 PM 41.1400 -77.5569 100° East 474 545 33,000  Level New Center
Fri 10:11:46 PM 41.1186 -77.3814 99° East 474 545 33,000 -950 Level New Center
Fri 10:12:47 PM 41.0958 -77.2278 101° East 474 545 31,100 -1,918 Descending New Center
Fri 10:13:48 PM 41.0736 -77.0575 100° East 474 545 29,100 -1,983 Descending New Center
Fri 10:14:48 PM 41.0508 -76.8958 101° East 468 539 27,100 -1,950 Descending New Center
Fri 10:15:48 PM 41.0319 -76.7372 99° East 455 524 25,200 -1,932 Descending New Center
Fri 10:16:46 PM 41.0017 -76.5889 105° East 432 497 23,300 -1,815 Descending New Center
Fri 10:17:47 PM 40.9692 -76.4461 107° East 417 480 21,600 -1,574 Descending New Center
Fri 10:18:48 PM 40.9361 -76.3086 108° East 401 461 20,100 -1,831 Descending New Center
Fri 10:19:45 PM 40.9067 -76.1744 106° East 386 444 18,000 -1,983 Descending New Center
Fri 10:20:46 PM 40.8714 -76.0344 108° East 374 430 16,200 -1,610 Descending New Center
Fri 10:21:48 PM 40.8394 -75.9086 109° East 362 417 14,700 -1,450 Descending New Center
Fri 10:22:46 PM 40.8094 -75.7856 108° East 356 410 13,300 -864 Descending New Center
Fri 10:23:46 PM 40.7789 -75.6656 109° East 351 404 13,000 -149 Descending New Center
Fri 10:24:47 PM 40.7522 -75.5567 108° East 351 404 13,000  Level New Center
Fri 10:25:48 PM 40.7236 -75.4342 107° East 351 404 13,000  Level New Center
Fri 10:26:46 PM 40.6972 -75.3092 106° East 351 404 13,000 -254 Level New Center
Fri 10:27:46 PM 40.6747 -75.1875 104° East 346 398 12,500 -1,000 Descending New Center
Fri 10:28:46 PM 40.6222 -75.0883 125° Southeast 339 390 11,000 -1,230 Descending New Center
Fri 10:29:48 PM 40.5617 -74.9778 126° Southeast 334 384 10,000 -496 Descending New Center
Fri 10:30:47 PM 40.5261 -74.8583 111° Southeast 339 390 10,000  Level New Center
Fri 10:31:48 PM 40.5114 -74.7428 99° East 355 409 10,000  Level New Center
Fri 10:32:45 PM 40.5167 -74.5875 87° East 379 436 10,000  Level New Center
Fri 10:33:47 PM 40.5189 -74.4483 89° East 386 444 10,000  Level New Center
Fri 10:34:48 PM 40.5314 -74.3153 83° East 381 438 10,000 -600 Level New Center
Fri 10:35:47 PM 40.5533 -74.2044 75° East 331 381 8,800 -1,462 Descending New Center
Fri 10:36:47 PM 40.5875 -74.1078 65° Northeast 298 343 7,100 -1,678 Descending New Center
Fri 10:37:45 PM 40.6478 -74.0342 43° Northeast 290 334 5,500 -1,705 Descending New Center
Fri 10:38:15 PM 40.6833 -74.0000 36° Northeast 295 339 4,600 -1,071 Descending New TRACON
Fri 10:39:09 PM 40.7333 -73.9167 52° Northeast 299 344 4,000 -368 Descending New TRACON
Fri 10:40:09 PM 40.7667 -73.8333 62° Northeast 299 344 3,900 -526 Descending New TRACON
Fri 10:41:03 PM 40.8000 -73.7500 62° Northeast 292 336 3,000 -474 Descending New TRACON
Fri 10:42:03 PM 40.8667 -73.7000 30° Northeast 243 280 3,000 -190 Level New TRACON
Fri 10:43:09 PM 40.9000 -73.7500 311° West 193 222 2,600 -364 Descending New TRACON

Login

Don't have an account? Register now (free) for customized features, flight alerts, and more!